sensor_id;sensor_type;location;lat;lon;timestamp;P1;durP1;ratioP1;P2;durP2;ratioP2
37280;SDS011;23169;41.804;12.596;2022-08-24T00:03:54;9.65;;;4.13;;
37280;SDS011;23169;41.804;12.596;2022-08-24T00:06:27;8.05;;;4.00;;
37280;SDS011;23169;41.804;12.596;2022-08-24T00:08:56;6.75;;;3.47;;
37280;SDS011;23169;41.804;12.596;2022-08-24T00:11:26;8.70;;;3.97;;
37280;SDS011;23169;41.804;12.596;2022-08-24T00:13:55;10.32;;;3.75;;
37280;SDS011;23169;41.804;12.596;2022-08-24T00:16:24;9.30;;;3.80;;
37280;SDS011;23169;41.804;12.596;2022-08-24T00:18:54;4.25;;;3.38;;
37280;SDS011;23169;41.804;12.596;2022-08-24T00:21:23;10.48;;;4.13;;
37280;SDS011;23169;41.804;12.596;2022-08-24T00:23:52;6.18;;;4.00;;
37280;SDS011;23169;41.804;12.596;2022-08-24T00:26:21;7.15;;;3.78;;
37280;SDS011;23169;41.804;12.596;2022-08-24T00:28:50;8.02;;;3.95;;
37280;SDS011;23169;41.804;12.596;2022-08-24T00:31:19;6.15;;;3.92;;
37280;SDS011;23169;41.804;12.596;2022-08-24T00:33:47;9.20;;;4.10;;
37280;SDS011;23169;41.804;12.596;2022-08-24T00:36:16;6.72;;;3.55;;
37280;SDS011;23169;41.804;12.596;2022-08-24T00:38:45;8.38;;;4.38;;
37280;SDS011;23169;41.804;12.596;2022-08-24T00:41:17;7.63;;;3.92;;
37280;SDS011;23169;41.804;12.596;2022-08-24T00:44:05;8.75;;;4.05;;
37280;SDS011;23169;41.804;12.596;2022-08-24T00:49:29;6.68;;;4.00;;
37280;SDS011;23169;41.804;12.596;2022-08-24T00:55:10;9.57;;;3.67;;
37280;SDS011;23169;41.804;12.596;2022-08-24T00:57:45;7.78;;;3.90;;
37280;SDS011;23169;41.804;12.596;2022-08-24T01:00:20;9.20;;;3.65;;
37280;SDS011;23169;41.804;12.596;2022-08-24T01:02:54;8.68;;;3.70;;
37280;SDS011;23169;41.804;12.596;2022-08-24T01:05:26;5.13;;;2.90;;
37280;SDS011;23169;41.804;12.596;2022-08-24T01:07:55;6.10;;;2.85;;
37280;SDS011;23169;41.804;12.596;2022-08-24T01:10:26;5.47;;;2.80;;
37280;SDS011;23169;41.804;12.596;2022-08-24T01:13:00;7.70;;;2.97;;
37280;SDS011;23169;41.804;12.596;2022-08-24T01:15:37;5.90;;;2.90;;
37280;SDS011;23169;41.804;12.596;2022-08-24T01:18:10;4.78;;;2.55;;
37280;SDS011;23169;41.804;12.596;2022-08-24T01:21:07;5.40;;;2.20;;
37280;SDS011;23169;41.804;12.596;2022-08-24T01:23:52;4.65;;;2.13;;
37280;SDS011;23169;41.804;12.596;2022-08-24T01:28:55;4.50;;;2.47;;
37280;SDS011;23169;41.804;12.596;2022-08-24T01:31:27;5.15;;;2.33;;
37280;SDS011;23169;41.804;12.596;2022-08-24T01:33:55;6.30;;;2.53;;
37280;SDS011;23169;41.804;12.596;2022-08-24T01:36:29;6.07;;;2.63;;
37280;SDS011;23169;41.804;12.596;2022-08-24T01:39:09;3.60;;;2.97;;
37280;SDS011;23169;41.804;12.596;2022-08-24T01:41:39;6.53;;;3.58;;
37280;SDS011;23169;41.804;12.596;2022-08-24T01:44:08;6.82;;;2.92;;
37280;SDS011;23169;41.804;12.596;2022-08-24T01:46:37;4.97;;;2.95;;
37280;SDS011;23169;41.804;12.596;2022-08-24T01:49:05;7.20;;;2.97;;
37280;SDS011;23169;41.804;12.596;2022-08-24T01:51:33;5.68;;;3.00;;
37280;SDS011;23169;41.804;12.596;2022-08-24T01:54:02;7.22;;;3.40;;
37280;SDS011;23169;41.804;12.596;2022-08-24T01:56:32;4.70;;;3.33;;
37280;SDS011;23169;41.804;12.596;2022-08-24T01:59:01;5.20;;;3.50;;
37280;SDS011;23169;41.804;12.596;2022-08-24T02:01:32;7.22;;;3.70;;
37280;SDS011;23169;41.804;12.596;2022-08-24T02:04:07;4.93;;;3.13;;
37280;SDS011;23169;41.804;12.596;2022-08-24T02:06:36;7.28;;;3.15;;
37280;SDS011;23169;41.804;12.596;2022-08-24T02:09:05;7.80;;;3.80;;
37280;SDS011;23169;41.804;12.596;2022-08-24T02:11:34;3.72;;;2.75;;
37280;SDS011;23169;41.804;12.596;2022-08-24T02:14:04;4.78;;;3.08;;
37280;SDS011;23169;41.804;12.596;2022-08-24T02:16:33;12.32;;;3.42;;
37280;SDS011;23169;41.804;12.596;2022-08-24T02:19:05;7.22;;;3.35;;
37280;SDS011;23169;41.804;12.596;2022-08-24T02:21:34;7.50;;;3.45;;
37280;SDS011;23169;41.804;12.596;2022-08-24T02:24:02;6.95;;;3.47;;
37280;SDS011;23169;41.804;12.596;2022-08-24T02:26:31;6.45;;;3.00;;
37280;SDS011;23169;41.804;12.596;2022-08-24T02:28:59;3.88;;;2.80;;
37280;SDS011;23169;41.804;12.596;2022-08-24T02:31:28;5.00;;;3.55;;
37280;SDS011;23169;41.804;12.596;2022-08-24T02:33:59;4.72;;;3.75;;
37280;SDS011;23169;41.804;12.596;2022-08-24T02:36:28;7.47;;;3.78;;
37280;SDS011;23169;41.804;12.596;2022-08-24T02:38:58;7.97;;;3.70;;
37280;SDS011;23169;41.804;12.596;2022-08-24T02:41:26;10.88;;;3.58;;
37280;SDS011;23169;41.804;12.596;2022-08-24T02:43:55;5.28;;;3.60;;
37280;SDS011;23169;41.804;12.596;2022-08-24T02:46:25;5.57;;;3.78;;
37280;SDS011;23169;41.804;12.596;2022-08-24T02:48:55;6.40;;;3.63;;
37280;SDS011;23169;41.804;12.596;2022-08-24T02:51:28;7.38;;;3.83;;
37280;SDS011;23169;41.804;12.596;2022-08-24T02:54:00;7.25;;;3.85;;
37280;SDS011;23169;41.804;12.596;2022-08-24T02:56:30;9.27;;;3.83;;
37280;SDS011;23169;41.804;12.596;2022-08-24T02:58:59;5.75;;;3.35;;
37280;SDS011;23169;41.804;12.596;2022-08-24T03:01:28;6.57;;;3.53;;
37280;SDS011;23169;41.804;12.596;2022-08-24T03:03:56;6.38;;;4.07;;
37280;SDS011;23169;41.804;12.596;2022-08-24T03:06:25;8.38;;;3.92;;
37280;SDS011;23169;41.804;12.596;2022-08-24T03:08:53;6.85;;;3.47;;
37280;SDS011;23169;41.804;12.596;2022-08-24T03:11:24;7.22;;;3.30;;
37280;SDS011;23169;41.804;12.596;2022-08-24T03:13:57;5.80;;;3.65;;
37280;SDS011;23169;41.804;12.596;2022-08-24T03:16:26;7.25;;;3.35;;
37280;SDS011;23169;41.804;12.596;2022-08-24T03:18:58;9.40;;;4.30;;
37280;SDS011;23169;41.804;12.596;2022-08-24T03:21:27;5.85;;;3.65;;
37280;SDS011;23169;41.804;12.596;2022-08-24T03:23:55;7.20;;;3.72;;
37280;SDS011;23169;41.804;12.596;2022-08-24T03:26:23;5.30;;;3.30;;
37280;SDS011;23169;41.804;12.596;2022-08-24T03:28:52;7.10;;;3.58;;
37280;SDS011;23169;41.804;12.596;2022-08-24T03:31:20;5.25;;;3.60;;
37280;SDS011;23169;41.804;12.596;2022-08-24T03:33:49;7.85;;;3.03;;
37280;SDS011;23169;41.804;12.596;2022-08-24T03:36:18;5.13;;;2.72;;
37280;SDS011;23169;41.804;12.596;2022-08-24T03:38:46;5.72;;;2.60;;
37280;SDS011;23169;41.804;12.596;2022-08-24T03:41:15;5.70;;;2.78;;
37280;SDS011;23169;41.804;12.596;2022-08-24T03:43:43;5.25;;;2.80;;
37280;SDS011;23169;41.804;12.596;2022-08-24T03:46:20;4.65;;;2.58;;
37280;SDS011;23169;41.804;12.596;2022-08-24T03:48:54;4.00;;;2.83;;
37280;SDS011;23169;41.804;12.596;2022-08-24T03:51:25;4.40;;;2.40;;
37280;SDS011;23169;41.804;12.596;2022-08-24T03:53:56;7.50;;;2.45;;
37280;SDS011;23169;41.804;12.596;2022-08-24T03:56:27;6.63;;;2.55;;
37280;SDS011;23169;41.804;12.596;2022-08-24T03:58:56;7.15;;;2.50;;
37280;SDS011;23169;41.804;12.596;2022-08-24T04:01:24;5.15;;;2.88;;
37280;SDS011;23169;41.804;12.596;2022-08-24T04:03:53;5.25;;;2.38;;
37280;SDS011;23169;41.804;12.596;2022-08-24T04:06:24;5.70;;;2.83;;
37280;SDS011;23169;41.804;12.596;2022-08-24T04:08:53;7.05;;;2.55;;
37280;SDS011;23169;41.804;12.596;2022-08-24T04:11:25;6.20;;;3.00;;
37280;SDS011;23169;41.804;12.596;2022-08-24T04:13:56;6.32;;;2.42;;
37280;SDS011;23169;41.804;12.596;2022-08-24T04:16:25;5.43;;;3.28;;
37280;SDS011;23169;41.804;12.596;2022-08-24T04:18:55;12.73;;;3.45;;
37280;SDS011;23169;41.804;12.596;2022-08-24T04:21:30;7.10;;;2.75;;
37280;SDS011;23169;41.804;12.596;2022-08-24T04:24:00;4.97;;;3.08;;
37280;SDS011;23169;41.804;12.596;2022-08-24T04:26:32;4.28;;;2.75;;
37280;SDS011;23169;41.804;12.596;2022-08-24T04:29:00;8.90;;;3.42;;
37280;SDS011;23169;41.804;12.596;2022-08-24T04:31:30;5.85;;;2.72;;
37280;SDS011;23169;41.804;12.596;2022-08-24T04:34:02;9.05;;;3.28;;
37280;SDS011;23169;41.804;12.596;2022-08-24T04:36:33;8.30;;;3.15;;
37280;SDS011;23169;41.804;12.596;2022-08-24T04:39:02;5.28;;;3.15;;
37280;SDS011;23169;41.804;12.596;2022-08-24T04:41:31;7.22;;;3.22;;
37280;SDS011;23169;41.804;12.596;2022-08-24T04:44:02;5.63;;;3.22;;
37280;SDS011;23169;41.804;12.596;2022-08-24T04:46:31;5.45;;;3.03;;
37280;SDS011;23169;41.804;12.596;2022-08-24T04:49:00;7.55;;;3.55;;
37280;SDS011;23169;41.804;12.596;2022-08-24T04:51:28;9.40;;;3.30;;
37280;SDS011;23169;41.804;12.596;2022-08-24T04:53:57;8.18;;;4.15;;
37280;SDS011;23169;41.804;12.596;2022-08-24T04:56:25;7.57;;;2.85;;
37280;SDS011;23169;41.804;12.596;2022-08-24T04:58:54;13.98;;;5.13;;
37280;SDS011;23169;41.804;12.596;2022-08-24T05:01:24;16.23;;;6.60;;
37280;SDS011;23169;41.804;12.596;2022-08-24T05:03:54;19.02;;;5.82;;
37280;SDS011;23169;41.804;12.596;2022-08-24T05:06:24;11.48;;;5.13;;
37280;SDS011;23169;41.804;12.596;2022-08-24T05:08:54;11.45;;;4.63;;
37280;SDS011;23169;41.804;12.596;2022-08-24T05:11:24;11.38;;;4.07;;
37280;SDS011;23169;41.804;12.596;2022-08-24T05:13:53;6.10;;;3.38;;
37280;SDS011;23169;41.804;12.596;2022-08-24T05:16:23;7.68;;;4.20;;
37280;SDS011;23169;41.804;12.596;2022-08-24T05:18:53;67.55;;;35.15;;
37280;SDS011;23169;41.804;12.596;2022-08-24T05:21:26;39.92;;;18.42;;
37280;SDS011;23169;41.804;12.596;2022-08-24T05:23:55;42.58;;;17.30;;
37280;SDS011;23169;41.804;12.596;2022-08-24T05:26:24;25.20;;;9.05;;
37280;SDS011;23169;41.804;12.596;2022-08-24T05:28:56;19.55;;;7.43;;
37280;SDS011;23169;41.804;12.596;2022-08-24T05:31:27;19.00;;;6.10;;
37280;SDS011;23169;41.804;12.596;2022-08-24T05:33:58;18.13;;;5.50;;
37280;SDS011;23169;41.804;12.596;2022-08-24T05:36:32;11.82;;;4.70;;
37280;SDS011;23169;41.804;12.596;2022-08-24T05:39:09;11.07;;;5.00;;
37280;SDS011;23169;41.804;12.596;2022-08-24T05:41:39;14.02;;;4.80;;
37280;SDS011;23169;41.804;12.596;2022-08-24T05:44:11;13.48;;;4.78;;
37280;SDS011;23169;41.804;12.596;2022-08-24T05:46:41;11.02;;;4.55;;
37280;SDS011;23169;41.804;12.596;2022-08-24T05:49:10;10.23;;;4.43;;
37280;SDS011;23169;41.804;12.596;2022-08-24T05:51:39;11.73;;;4.43;;
37280;SDS011;23169;41.804;12.596;2022-08-24T05:54:09;9.30;;;4.50;;
37280;SDS011;23169;41.804;12.596;2022-08-24T05:56:41;12.38;;;4.28;;
37280;SDS011;23169;41.804;12.596;2022-08-24T05:59:11;13.43;;;4.28;;
37280;SDS011;23169;41.804;12.596;2022-08-24T06:01:41;12.02;;;4.18;;
37280;SDS011;23169;41.804;12.596;2022-08-24T06:04:09;7.03;;;4.07;;
37280;SDS011;23169;41.804;12.596;2022-08-24T06:06:38;7.80;;;3.20;;
37280;SDS011;23169;41.804;12.596;2022-08-24T06:09:09;9.45;;;4.60;;
37280;SDS011;23169;41.804;12.596;2022-08-24T06:11:39;8.55;;;3.65;;
37280;SDS011;23169;41.804;12.596;2022-08-24T06:14:10;5.93;;;3.83;;
37280;SDS011;23169;41.804;12.596;2022-08-24T06:16:42;8.52;;;4.07;;
37280;SDS011;23169;41.804;12.596;2022-08-24T06:19:12;42.45;;;18.55;;
37280;SDS011;23169;41.804;12.596;2022-08-24T06:21:43;47.50;;;18.70;;
37280;SDS011;23169;41.804;12.596;2022-08-24T06:24:13;30.42;;;9.68;;
37280;SDS011;23169;41.804;12.596;2022-08-24T06:26:42;24.35;;;7.60;;
37280;SDS011;23169;41.804;12.596;2022-08-24T06:29:53;20.23;;;5.30;;
37280;SDS011;23169;41.804;12.596;2022-08-24T06:32:27;12.55;;;4.90;;
37280;SDS011;23169;41.804;12.596;2022-08-24T06:34:56;12.80;;;4.38;;
37280;SDS011;23169;41.804;12.596;2022-08-24T06:37:25;14.27;;;4.70;;
37280;SDS011;23169;41.804;12.596;2022-08-24T06:39:55;9.43;;;3.92;;
37280;SDS011;23169;41.804;12.596;2022-08-24T06:42:24;8.85;;;3.70;;
37280;SDS011;23169;41.804;12.596;2022-08-24T06:44:54;11.63;;;3.70;;
37280;SDS011;23169;41.804;12.596;2022-08-24T06:47:22;10.65;;;3.42;;
37280;SDS011;23169;41.804;12.596;2022-08-24T06:49:51;6.90;;;3.38;;
37280;SDS011;23169;41.804;12.596;2022-08-24T06:52:19;11.70;;;3.90;;
37280;SDS011;23169;41.804;12.596;2022-08-24T06:54:48;7.70;;;3.22;;
37280;SDS011;23169;41.804;12.596;2022-08-24T06:57:17;6.90;;;3.60;;
37280;SDS011;23169;41.804;12.596;2022-08-24T06:59:46;31.02;;;4.60;;
37280;SDS011;23169;41.804;12.596;2022-08-24T07:02:14;9.43;;;2.83;;
37280;SDS011;23169;41.804;12.596;2022-08-24T07:04:45;10.30;;;3.78;;
37280;SDS011;23169;41.804;12.596;2022-08-24T07:07:14;10.48;;;3.35;;
37280;SDS011;23169;41.804;12.596;2022-08-24T07:09:43;7.88;;;2.78;;
37280;SDS011;23169;41.804;12.596;2022-08-24T07:12:11;8.27;;;3.45;;
37280;SDS011;23169;41.804;12.596;2022-08-24T07:14:40;7.40;;;3.00;;
37280;SDS011;23169;41.804;12.596;2022-08-24T07:17:08;10.10;;;3.45;;
37280;SDS011;23169;41.804;12.596;2022-08-24T07:19:36;7.88;;;3.25;;
37280;SDS011;23169;41.804;12.596;2022-08-24T07:22:05;6.25;;;2.92;;
37280;SDS011;23169;41.804;12.596;2022-08-24T07:24:34;5.03;;;2.85;;
37280;SDS011;23169;41.804;12.596;2022-08-24T07:27:02;6.15;;;3.00;;
37280;SDS011;23169;41.804;12.596;2022-08-24T07:29:34;9.25;;;3.50;;
37280;SDS011;23169;41.804;12.596;2022-08-24T07:32:02;7.63;;;3.28;;
37280;SDS011;23169;41.804;12.596;2022-08-24T07:34:31;8.02;;;3.50;;
37280;SDS011;23169;41.804;12.596;2022-08-24T07:36:59;9.32;;;3.45;;
37280;SDS011;23169;41.804;12.596;2022-08-24T07:39:29;38.70;;;13.75;;
37280;SDS011;23169;41.804;12.596;2022-08-24T07:41:57;25.88;;;8.13;;
37280;SDS011;23169;41.804;12.596;2022-08-24T07:44:30;16.05;;;5.05;;
37280;SDS011;23169;41.804;12.596;2022-08-24T07:46:59;11.25;;;4.53;;
37280;SDS011;23169;41.804;12.596;2022-08-24T07:49:28;11.68;;;4.80;;
37280;SDS011;23169;41.804;12.596;2022-08-24T07:51:57;6.60;;;3.78;;
37280;SDS011;23169;41.804;12.596;2022-08-24T07:54:26;11.98;;;4.28;;
37280;SDS011;23169;41.804;12.596;2022-08-24T07:56:55;8.45;;;3.40;;
37280;SDS011;23169;41.804;12.596;2022-08-24T07:59:27;7.70;;;3.90;;
37280;SDS011;23169;41.804;12.596;2022-08-24T08:01:55;9.25;;;3.85;;
37280;SDS011;23169;41.804;12.596;2022-08-24T08:04:25;9.43;;;3.10;;
37280;SDS011;23169;41.804;12.596;2022-08-24T08:06:54;7.53;;;3.28;;
37280;SDS011;23169;41.804;12.596;2022-08-24T08:09:22;5.30;;;3.00;;
37280;SDS011;23169;41.804;12.596;2022-08-24T08:11:51;6.53;;;3.15;;
37280;SDS011;23169;41.804;12.596;2022-08-24T08:14:20;8.57;;;3.92;;
37280;SDS011;23169;41.804;12.596;2022-08-24T08:16:48;7.50;;;3.33;;
37280;SDS011;23169;41.804;12.596;2022-08-24T08:19:17;5.78;;;2.90;;
37280;SDS011;23169;41.804;12.596;2022-08-24T08:21:46;8.30;;;3.25;;
37280;SDS011;23169;41.804;12.596;2022-08-24T08:24:38;4.30;;;2.75;;
37280;SDS011;23169;41.804;12.596;2022-08-24T08:27:12;9.40;;;3.08;;
37280;SDS011;23169;41.804;12.596;2022-08-24T08:29:44;14.05;;;3.53;;
37280;SDS011;23169;41.804;12.596;2022-08-24T08:32:12;10.40;;;2.75;;
37280;SDS011;23169;41.804;12.596;2022-08-24T08:34:43;6.18;;;2.95;;
37280;SDS011;23169;41.804;12.596;2022-08-24T08:37:13;6.50;;;2.78;;
37280;SDS011;23169;41.804;12.596;2022-08-24T08:39:42;8.50;;;3.35;;
37280;SDS011;23169;41.804;12.596;2022-08-24T08:54:12;8.43;;;4.30;;
37280;SDS011;23169;41.804;12.596;2022-08-24T08:56:55;8.45;;;4.18;;
37280;SDS011;23169;41.804;12.596;2022-08-24T09:16:03;4.10;;;2.63;;
37280;SDS011;23169;41.804;12.596;2022-08-24T09:21:43;7.22;;;3.33;;
37280;SDS011;23169;41.804;12.596;2022-08-24T09:33:04;7.75;;;2.78;;
37280;SDS011;23169;41.804;12.596;2022-08-24T09:35:33;6.03;;;2.67;;
37280;SDS011;23169;41.804;12.596;2022-08-24T09:41:02;8.13;;;2.97;;
37280;SDS011;23169;41.804;12.596;2022-08-24T10:07:45;5.95;;;2.97;;
37280;SDS011;23169;41.804;12.596;2022-08-24T10:16:10;8.45;;;3.03;;
37280;SDS011;23169;41.804;12.596;2022-08-24T10:21:53;4.97;;;2.80;;
37280;SDS011;23169;41.804;12.596;2022-08-24T10:33:21;5.80;;;2.65;;
37280;SDS011;23169;41.804;12.596;2022-08-24T10:36:03;4.03;;;2.78;;
37280;SDS011;23169;41.804;12.596;2022-08-24T10:41:47;5.35;;;2.95;;
37280;SDS011;23169;41.804;12.596;2022-08-24T10:44:27;4.70;;;2.80;;
37280;SDS011;23169;41.804;12.596;2022-08-24T10:56:11;7.57;;;2.60;;
37280;SDS011;23169;41.804;12.596;2022-08-24T10:58:43;6.40;;;3.00;;
37280;SDS011;23169;41.804;12.596;2022-08-24T11:04:03;3.42;;;2.78;;
37280;SDS011;23169;41.804;12.596;2022-08-24T11:06:40;7.63;;;2.87;;
37280;SDS011;23169;41.804;12.596;2022-08-24T11:09:12;7.80;;;3.22;;
37280;SDS011;23169;41.804;12.596;2022-08-24T11:11:44;5.35;;;2.72;;
37280;SDS011;23169;41.804;12.596;2022-08-24T11:16:53;4.50;;;2.40;;
37280;SDS011;23169;41.804;12.596;2022-08-24T11:19:50;5.22;;;2.95;;
37280;SDS011;23169;41.804;12.596;2022-08-24T11:25:21;11.10;;;4.05;;
37280;SDS011;23169;41.804;12.596;2022-08-24T11:27:58;9.20;;;3.00;;
37280;SDS011;23169;41.804;12.596;2022-08-24T11:30:38;5.45;;;2.63;;
37280;SDS011;23169;41.804;12.596;2022-08-24T11:33:22;8.15;;;3.13;;
37280;SDS011;23169;41.804;12.596;2022-08-24T11:35:58;7.60;;;3.38;;
37280;SDS011;23169;41.804;12.596;2022-08-24T11:38:30;3.53;;;2.60;;
37280;SDS011;23169;41.804;12.596;2022-08-24T11:41:15;6.88;;;3.10;;
37280;SDS011;23169;41.804;12.596;2022-08-24T11:49:36;7.05;;;3.17;;
37280;SDS011;23169;41.804;12.596;2022-08-24T11:55:17;8.18;;;3.08;;
37280;SDS011;23169;41.804;12.596;2022-08-24T12:06:15;8.15;;;3.03;;
37280;SDS011;23169;41.804;12.596;2022-08-24T12:08:59;5.15;;;3.05;;
37280;SDS011;23169;41.804;12.596;2022-08-24T12:21:45;7.57;;;3.20;;
37280;SDS011;23169;41.804;12.596;2022-08-24T12:24:20;6.28;;;3.15;;
37280;SDS011;23169;41.804;12.596;2022-08-24T12:27:00;5.97;;;2.22;;
37280;SDS011;23169;41.804;12.596;2022-08-24T12:29:58;3.53;;;2.75;;
37280;SDS011;23169;41.804;12.596;2022-08-24T12:35:08;8.82;;;3.30;;
37280;SDS011;23169;41.804;12.596;2022-08-24T12:37:47;7.97;;;2.92;;
37280;SDS011;23169;41.804;12.596;2022-08-24T12:40:25;4.20;;;2.88;;
37280;SDS011;23169;41.804;12.596;2022-08-24T12:45:46;4.57;;;2.05;;
37280;SDS011;23169;41.804;12.596;2022-08-24T12:56:27;7.07;;;2.80;;
37280;SDS011;23169;41.804;12.596;2022-08-24T12:59:12;6.45;;;2.50;;
37280;SDS011;23169;41.804;12.596;2022-08-24T13:01:59;5.82;;;2.58;;
37280;SDS011;23169;41.804;12.596;2022-08-24T13:23:12;8.27;;;3.10;;
37280;SDS011;23169;41.804;12.596;2022-08-24T13:37:02;5.22;;;2.65;;
37280;SDS011;23169;41.804;12.596;2022-08-24T13:45:53;5.47;;;2.60;;
37280;SDS011;23169;41.804;12.596;2022-08-24T13:51:15;7.38;;;2.70;;
37280;SDS011;23169;41.804;12.596;2022-08-24T13:54:08;5.55;;;2.28;;
37280;SDS011;23169;41.804;12.596;2022-08-24T13:57:03;3.35;;;1.92;;
37280;SDS011;23169;41.804;12.596;2022-08-24T14:00:10;5.93;;;2.30;;
37280;SDS011;23169;41.804;12.596;2022-08-24T14:08:24;6.03;;;2.50;;
37280;SDS011;23169;41.804;12.596;2022-08-24T14:11:11;3.90;;;2.65;;
37280;SDS011;23169;41.804;12.596;2022-08-24T14:19:56;6.90;;;4.30;;
37280;SDS011;23169;41.804;12.596;2022-08-24T14:22:35;3.10;;;2.15;;
37280;SDS011;23169;41.804;12.596;2022-08-24T14:25:25;2.40;;;2.13;;
37280;SDS011;23169;41.804;12.596;2022-08-24T14:43:28;2.42;;;1.98;;
37280;SDS011;23169;41.804;12.596;2022-08-24T14:49:17;4.45;;;2.17;;
37280;SDS011;23169;41.804;12.596;2022-08-24T14:57:18;7.70;;;2.10;;
37280;SDS011;23169;41.804;12.596;2022-08-24T15:00:15;3.05;;;2.10;;
37280;SDS011;23169;41.804;12.596;2022-08-24T15:05:23;4.93;;;2.63;;
37280;SDS011;23169;41.804;12.596;2022-08-24T15:10:34;2.38;;;2.10;;
37280;SDS011;23169;41.804;12.596;2022-08-24T15:13:21;5.10;;;1.98;;
37280;SDS011;23169;41.804;12.596;2022-08-24T15:16:04;3.72;;;1.92;;
37280;SDS011;23169;41.804;12.596;2022-08-24T15:24:00;4.97;;;2.30;;
37280;SDS011;23169;41.804;12.596;2022-08-24T15:29:16;3.42;;;2.13;;
37280;SDS011;23169;41.804;12.596;2022-08-24T15:31:57;2.97;;;2.35;;
37280;SDS011;23169;41.804;12.596;2022-08-24T15:37:13;6.05;;;2.67;;
37280;SDS011;23169;41.804;12.596;2022-08-24T15:39:55;6.70;;;2.30;;
37280;SDS011;23169;41.804;12.596;2022-08-24T15:42:26;4.32;;;1.88;;
37280;SDS011;23169;41.804;12.596;2022-08-24T15:44:58;5.38;;;2.30;;
37280;SDS011;23169;41.804;12.596;2022-08-24T15:47:32;6.03;;;2.63;;
37280;SDS011;23169;41.804;12.596;2022-08-24T15:55:30;5.05;;;1.60;;
37280;SDS011;23169;41.804;12.596;2022-08-24T15:58:11;6.55;;;2.20;;
37280;SDS011;23169;41.804;12.596;2022-08-24T16:04:00;8.43;;;2.60;;
37280;SDS011;23169;41.804;12.596;2022-08-24T16:06:41;6.18;;;2.35;;
37280;SDS011;23169;41.804;12.596;2022-08-24T16:14:39;5.90;;;2.70;;
37280;SDS011;23169;41.804;12.596;2022-08-24T16:19:55;6.93;;;2.70;;
37280;SDS011;23169;41.804;12.596;2022-08-24T16:22:37;3.58;;;2.33;;
37280;SDS011;23169;41.804;12.596;2022-08-24T16:25:23;3.20;;;2.42;;
37280;SDS011;23169;41.804;12.596;2022-08-24T16:28:05;5.40;;;2.58;;
37280;SDS011;23169;41.804;12.596;2022-08-24T16:36:06;4.97;;;2.42;;
37280;SDS011;23169;41.804;12.596;2022-08-24T16:38:37;3.85;;;2.33;;
37280;SDS011;23169;41.804;12.596;2022-08-24T16:41:09;5.70;;;2.42;;
37280;SDS011;23169;41.804;12.596;2022-08-24T16:43:39;4.15;;;2.15;;
37280;SDS011;23169;41.804;12.596;2022-08-24T16:46:11;8.65;;;2.22;;
37280;SDS011;23169;41.804;12.596;2022-08-24T16:48:46;3.47;;;2.80;;
37280;SDS011;23169;41.804;12.596;2022-08-24T16:51:15;8.20;;;2.83;;
37280;SDS011;23169;41.804;12.596;2022-08-24T16:53:43;8.23;;;2.92;;
37280;SDS011;23169;41.804;12.596;2022-08-24T16:56:12;4.15;;;2.55;;
37280;SDS011;23169;41.804;12.596;2022-08-24T16:58:41;7.43;;;2.95;;
37280;SDS011;23169;41.804;12.596;2022-08-24T17:01:09;5.15;;;2.45;;
37280;SDS011;23169;41.804;12.596;2022-08-24T17:03:38;5.43;;;2.50;;
37280;SDS011;23169;41.804;12.596;2022-08-24T17:06:10;7.00;;;2.95;;
37280;SDS011;23169;41.804;12.596;2022-08-24T17:08:39;9.18;;;2.85;;
37280;SDS011;23169;41.804;12.596;2022-08-24T17:11:08;4.30;;;2.50;;
37280;SDS011;23169;41.804;12.596;2022-08-24T17:13:37;2.97;;;2.00;;
37280;SDS011;23169;41.804;12.596;2022-08-24T17:16:07;3.40;;;2.63;;
37280;SDS011;23169;41.804;12.596;2022-08-24T17:18:37;5.63;;;2.78;;
37280;SDS011;23169;41.804;12.596;2022-08-24T17:21:06;6.70;;;2.50;;
37280;SDS011;23169;41.804;12.596;2022-08-24T17:23:35;7.85;;;2.95;;
37280;SDS011;23169;41.804;12.596;2022-08-24T17:26:05;5.43;;;2.55;;
37280;SDS011;23169;41.804;12.596;2022-08-24T17:28:38;7.18;;;2.90;;
37280;SDS011;23169;41.804;12.596;2022-08-24T17:31:09;5.75;;;2.78;;
37280;SDS011;23169;41.804;12.596;2022-08-24T17:33:37;8.10;;;3.10;;
37280;SDS011;23169;41.804;12.596;2022-08-24T17:36:07;12.50;;;3.42;;
37280;SDS011;23169;41.804;12.596;2022-08-24T17:38:38;7.97;;;3.03;;
37280;SDS011;23169;41.804;12.596;2022-08-24T17:41:15;8.27;;;3.08;;
37280;SDS011;23169;41.804;12.596;2022-08-24T17:43:43;5.82;;;3.38;;
37280;SDS011;23169;41.804;12.596;2022-08-24T17:46:14;4.90;;;2.97;;
37280;SDS011;23169;41.804;12.596;2022-08-24T17:48:45;5.05;;;2.95;;
37280;SDS011;23169;41.804;12.596;2022-08-24T17:51:15;6.00;;;3.38;;
37280;SDS011;23169;41.804;12.596;2022-08-24T17:53:43;11.35;;;4.63;;
37280;SDS011;23169;41.804;12.596;2022-08-24T17:56:11;12.40;;;4.63;;
37280;SDS011;23169;41.804;12.596;2022-08-24T17:58:42;13.23;;;4.57;;
37280;SDS011;23169;41.804;12.596;2022-08-24T18:01:30;7.15;;;4.28;;
37280;SDS011;23169;41.804;12.596;2022-08-24T18:03:58;6.85;;;3.92;;
37280;SDS011;23169;41.804;12.596;2022-08-24T18:06:27;7.30;;;4.70;;
37280;SDS011;23169;41.804;12.596;2022-08-24T18:08:56;8.27;;;3.70;;
37280;SDS011;23169;41.804;12.596;2022-08-24T18:11:30;6.60;;;3.58;;
37280;SDS011;23169;41.804;12.596;2022-08-24T18:13:58;8.32;;;3.42;;
37280;SDS011;23169;41.804;12.596;2022-08-24T18:16:30;8.80;;;3.00;;
37280;SDS011;23169;41.804;12.596;2022-08-24T18:18:58;9.65;;;3.65;;
37280;SDS011;23169;41.804;12.596;2022-08-24T18:21:28;10.15;;;3.58;;
37280;SDS011;23169;41.804;12.596;2022-08-24T18:23:56;8.88;;;4.05;;
37280;SDS011;23169;41.804;12.596;2022-08-24T18:26:25;4.70;;;3.28;;
37280;SDS011;23169;41.804;12.596;2022-08-24T18:28:55;6.68;;;3.72;;
37280;SDS011;23169;41.804;12.596;2022-08-24T18:31:27;6.60;;;3.22;;
37280;SDS011;23169;41.804;12.596;2022-08-24T18:33:56;7.60;;;3.13;;
37280;SDS011;23169;41.804;12.596;2022-08-24T18:36:25;4.63;;;2.72;;
37280;SDS011;23169;41.804;12.596;2022-08-24T18:38:54;5.85;;;2.83;;
37280;SDS011;23169;41.804;12.596;2022-08-24T18:41:23;7.25;;;3.58;;
37280;SDS011;23169;41.804;12.596;2022-08-24T18:43:54;6.57;;;3.72;;
37280;SDS011;23169;41.804;12.596;2022-08-24T18:46:23;9.00;;;3.80;;
37280;SDS011;23169;41.804;12.596;2022-08-24T18:48:53;8.30;;;3.30;;
37280;SDS011;23169;41.804;12.596;2022-08-24T18:51:22;8.65;;;4.05;;
37280;SDS011;23169;41.804;12.596;2022-08-24T18:53:56;5.07;;;3.20;;
37280;SDS011;23169;41.804;12.596;2022-08-24T18:56:30;8.15;;;3.60;;
37280;SDS011;23169;41.804;12.596;2022-08-24T18:58:59;5.70;;;3.50;;
37280;SDS011;23169;41.804;12.596;2022-08-24T19:01:28;7.18;;;3.80;;
37280;SDS011;23169;41.804;12.596;2022-08-24T19:03:57;10.57;;;3.30;;
37280;SDS011;23169;41.804;12.596;2022-08-24T19:06:26;8.05;;;3.95;;
37280;SDS011;23169;41.804;12.596;2022-08-24T19:08:54;8.32;;;3.45;;
37280;SDS011;23169;41.804;12.596;2022-08-24T19:11:23;7.78;;;3.75;;
37280;SDS011;23169;41.804;12.596;2022-08-24T19:13:51;10.57;;;4.25;;
37280;SDS011;23169;41.804;12.596;2022-08-24T19:16:19;8.23;;;4.13;;
37280;SDS011;23169;41.804;12.596;2022-08-24T19:18:48;9.07;;;3.63;;
37280;SDS011;23169;41.804;12.596;2022-08-24T19:21:17;8.70;;;3.63;;
37280;SDS011;23169;41.804;12.596;2022-08-24T19:23:46;11.18;;;3.08;;
37280;SDS011;23169;41.804;12.596;2022-08-24T19:26:14;9.10;;;3.25;;
37280;SDS011;23169;41.804;12.596;2022-08-24T19:28:43;5.55;;;3.15;;
37280;SDS011;23169;41.804;12.596;2022-08-24T19:31:11;7.32;;;3.88;;